createdAt,value
2024-04-09T00:01:21.989Z,16.40
2024-04-09T00:03:49.219Z,16.46
2024-04-09T00:06:16.789Z,16.39
2024-04-09T00:08:46.182Z,16.10
2024-04-09T00:11:23.755Z,16.34
2024-04-09T00:13:55.539Z,16.36
2024-04-09T00:16:30.626Z,15.98
2024-04-09T00:19:00.352Z,16.48
2024-04-09T00:21:30.995Z,16.48
2024-04-09T00:23:59.534Z,16.56
2024-04-09T00:26:27.652Z,16.50
2024-04-09T00:28:54.952Z,16.41
2024-04-09T00:31:22.690Z,16.66
2024-04-09T00:33:50.758Z,16.61
2024-04-09T00:36:17.900Z,16.67
2024-04-09T00:38:48.472Z,16.59
2024-04-09T00:41:16.630Z,16.35
2024-04-09T00:43:44.145Z,16.14
2024-04-09T00:46:11.597Z,16.20
2024-04-09T00:48:39.158Z,15.95
2024-04-09T00:51:08.278Z,15.83
2024-04-09T00:53:36.224Z,15.77
2024-04-09T00:56:03.522Z,15.66
2024-04-09T00:58:30.555Z,15.28
2024-04-09T01:00:58.298Z,15.29
2024-04-09T01:03:26.351Z,15.11
2024-04-09T01:05:54.278Z,14.86
2024-04-09T01:08:21.188Z,14.97
2024-04-09T01:10:47.966Z,14.75
2024-04-09T01:13:14.754Z,14.70
2024-04-09T01:15:41.588Z,14.74
2024-04-09T01:18:08.439Z,14.57
2024-04-09T01:20:35.245Z,14.59
2024-04-09T01:23:02.158Z,14.52
2024-04-09T01:25:28.911Z,14.64
2024-04-09T01:27:55.807Z,14.64
2024-04-09T01:30:23.200Z,14.40
2024-04-09T01:32:50.733Z,14.54
2024-04-09T01:35:17.980Z,14.51
2024-04-09T01:37:44.769Z,14.30
2024-04-09T01:40:14.823Z,14.44
2024-04-09T01:42:41.788Z,14.53
2024-04-09T01:45:09.078Z,14.29
2024-04-09T01:47:36.331Z,14.38
2024-04-09T01:50:05.108Z,14.24
2024-04-09T01:52:33.051Z,13.99
2024-04-09T01:55:00.003Z,14.29
2024-04-09T01:57:31.358Z,14.08
2024-04-09T01:59:58.400Z,14.16
2024-04-09T02:02:25.606Z,14.16
2024-04-09T02:04:52.392Z,14.31
2024-04-09T02:07:19.609Z,14.17
2024-04-09T02:09:49.522Z,14.05
2024-04-09T02:12:16.283Z,14.24
2024-04-09T02:14:43.044Z,14.23
2024-04-09T02:17:09.798Z,14.20
2024-04-09T02:19:37.451Z,14.25
2024-04-09T02:22:04.983Z,14.29
2024-04-09T02:24:31.871Z,14.25
2024-04-09T02:26:58.806Z,14.28
2024-04-09T02:29:25.673Z,13.93
2024-04-09T02:31:53.418Z,14.08
2024-04-09T02:34:24.702Z,14.06
2024-04-09T02:36:52.790Z,13.74
2024-04-09T02:39:19.934Z,13.94
2024-04-09T02:41:46.864Z,13.94
2024-04-09T02:44:13.653Z,13.97
2024-04-09T02:46:40.590Z,13.97
2024-04-09T02:49:08.004Z,14.00
2024-04-09T02:51:37.688Z,14.00
2024-04-09T02:54:04.752Z,13.94
2024-04-09T02:56:31.733Z,13.80
2024-04-09T02:58:58.670Z,13.78
2024-04-09T03:01:25.487Z,13.81
2024-04-09T03:03:52.390Z,13.82
2024-04-09T03:06:19.522Z,13.32
2024-04-09T03:08:46.695Z,13.74
2024-04-09T03:11:23.537Z,13.83
2024-04-09T03:13:51.103Z,13.79
2024-04-09T03:16:22.729Z,13.66
2024-04-09T03:18:55.093Z,13.88
2024-04-09T03:21:22.233Z,13.73
2024-04-09T03:23:49.333Z,13.68
2024-04-09T03:26:16.126Z,13.29
2024-04-09T03:28:43.245Z,13.85
2024-04-09T03:31:11.030Z,13.31
2024-04-09T03:33:38.252Z,13.44
2024-04-09T03:36:07.023Z,13.76
2024-04-09T03:38:33.879Z,13.45
2024-04-09T03:41:03.110Z,13.65
2024-04-09T03:43:29.973Z,13.58
2024-04-09T03:46:16.322Z,13.66
2024-04-09T03:48:46.062Z,13.66
2024-04-09T03:51:15.589Z,13.66
2024-04-09T03:53:43.016Z,13.60
2024-04-09T03:56:10.648Z,13.61
2024-04-09T03:58:42.281Z,13.60
2024-04-09T04:01:10.187Z,13.57
2024-04-09T04:03:40.646Z,13.53
2024-04-09T04:06:07.636Z,13.58
2024-04-09T04:08:36.626Z,13.57
2024-04-09T04:11:04.933Z,13.33
2024-04-09T04:13:33.220Z,13.52
2024-04-09T04:16:07.027Z,13.51
2024-04-09T04:18:38.152Z,13.43
2024-04-09T04:21:08.899Z,13.48
2024-04-09T04:23:37.796Z,13.44
2024-04-09T04:26:08.168Z,13.47
2024-04-09T04:28:43.618Z,13.41
2024-04-09T04:31:12.335Z,12.89
2024-04-09T04:33:40.714Z,13.51
2024-04-09T04:36:08.670Z,13.53
2024-04-09T04:38:36.554Z,13.57
2024-04-09T04:41:03.987Z,13.55
2024-04-09T04:43:30.811Z,13.51
2024-04-09T04:45:57.894Z,13.55
2024-04-09T04:48:25.475Z,13.55
2024-04-09T04:50:53.466Z,13.53
2024-04-09T04:53:21.084Z,13.53
2024-04-09T04:55:48.785Z,13.52
2024-04-09T04:58:15.511Z,13.47
2024-04-09T05:00:42.852Z,13.34
2024-04-09T05:03:11.087Z,13.48
2024-04-09T05:05:38.804Z,13.50
2024-04-09T05:08:06.283Z,13.52
2024-04-09T05:10:33.646Z,13.51
2024-04-09T05:13:01.373Z,12.78
2024-04-09T05:15:30.707Z,12.79
2024-04-09T05:18:01.273Z,13.41
2024-04-09T05:20:28.605Z,13.49
2024-04-09T05:22:57.859Z,13.50
2024-04-09T05:25:28.435Z,13.25
2024-04-09T05:27:56.260Z,13.03
2024-04-09T05:30:23.536Z,13.38
2024-04-09T05:32:50.586Z,13.16
2024-04-09T05:35:21.041Z,12.83
2024-04-09T05:37:47.946Z,12.73
2024-04-09T05:40:14.865Z,13.26
2024-04-09T05:42:47.333Z,13.31
2024-04-09T05:45:24.672Z,12.84
2024-04-09T05:47:51.695Z,13.07
2024-04-09T05:50:18.670Z,13.03
2024-04-09T05:52:45.573Z,13.34
2024-04-09T05:55:14.002Z,13.33
2024-04-09T05:57:42.024Z,13.18
2024-04-09T06:00:20.459Z,13.51
2024-04-09T06:02:48.708Z,13.35
2024-04-09T06:05:19.014Z,13.24
2024-04-09T06:07:46.978Z,13.22
2024-04-09T06:10:16.821Z,13.40
2024-04-09T06:12:44.263Z,12.80
2024-04-09T06:15:11.370Z,12.85
2024-04-09T06:17:38.310Z,12.97
2024-04-09T06:20:06.690Z,13.38
2024-04-09T06:22:33.992Z,13.08
2024-04-09T06:25:01.347Z,13.28
2024-04-09T06:29:55.109Z,13.08
2024-04-09T06:32:22.075Z,13.14
2024-04-09T06:34:48.846Z,13.16
2024-04-09T06:37:15.775Z,13.44
2024-04-09T06:39:42.867Z,13.24
2024-04-09T06:42:09.757Z,13.37
2024-04-09T06:44:36.612Z,13.28
2024-04-09T06:47:03.711Z,13.20
2024-04-09T06:49:30.598Z,13.29
2024-04-09T06:51:58.277Z,12.95
2024-04-09T06:54:25.132Z,13.13
2024-04-09T06:56:51.944Z,12.99
2024-04-09T06:59:19.243Z,13.22
2024-04-09T07:01:46.316Z,13.23
2024-04-09T07:04:13.506Z,13.26
2024-04-09T07:06:40.760Z,13.23
2024-04-09T07:09:08.317Z,13.18
2024-04-09T07:11:35.703Z,12.94
2024-04-09T07:14:02.615Z,13.28
2024-04-09T07:16:29.745Z,13.38
2024-04-09T07:18:56.691Z,13.29
2024-04-09T07:21:23.651Z,13.51
2024-04-09T07:23:50.652Z,13.59
2024-04-09T07:26:17.931Z,13.45
2024-04-09T07:28:45.022Z,13.50
2024-04-09T07:31:12.168Z,13.34
2024-04-09T07:33:39.382Z,13.47
2024-04-09T07:36:06.864Z,13.41
2024-04-09T07:38:33.686Z,13.51
2024-04-09T07:41:00.703Z,13.31
2024-04-09T07:43:30.851Z,13.37
2024-04-09T07:45:59.336Z,13.52
2024-04-09T07:48:26.873Z,13.57
2024-04-09T07:50:53.954Z,13.65
2024-04-09T07:53:22.186Z,13.75
2024-04-09T07:55:48.980Z,13.70
2024-04-09T07:58:15.841Z,13.90
2024-04-09T08:00:45.407Z,13.91
2024-04-09T08:03:12.984Z,13.95
2024-04-09T08:05:40.803Z,13.98
2024-04-09T08:08:09.229Z,13.97
2024-04-09T08:10:36.961Z,13.86
2024-04-09T08:13:04.055Z,13.94
2024-04-09T08:15:31.312Z,14.00
2024-04-09T08:17:58.547Z,14.03
2024-04-09T08:20:25.819Z,13.73
2024-04-09T08:22:53.639Z,13.95
2024-04-09T08:25:21.327Z,14.12
2024-04-09T08:27:52.694Z,14.00
2024-04-09T08:30:19.935Z,14.23
2024-04-09T08:32:51.772Z,14.33
2024-04-09T08:35:18.867Z,14.27
2024-04-09T08:37:46.639Z,14.47
2024-04-09T08:40:17.513Z,14.61
2024-04-09T08:42:46.100Z,14.68
2024-04-09T08:45:17.305Z,14.90
2024-04-09T08:47:49.582Z,14.48
2024-04-09T08:50:17.260Z,15.13
2024-04-09T08:52:44.825Z,15.26
2024-04-09T08:55:11.710Z,15.27
2024-04-09T08:57:39.766Z,15.16
2024-04-09T09:00:08.093Z,15.28
2024-04-09T09:02:36.667Z,15.38
2024-04-09T09:05:03.985Z,15.38
2024-04-09T09:07:31.227Z,15.32
2024-04-09T09:10:02.715Z,15.36
2024-04-09T09:12:30.245Z,15.28
2024-04-09T09:15:02.216Z,14.76
2024-04-09T09:17:32.691Z,15.26
2024-04-09T09:20:04.559Z,15.42
2024-04-09T09:22:37.477Z,15.47
2024-04-09T09:25:08.858Z,15.29
2024-04-09T09:27:37.029Z,15.51
2024-04-09T09:30:04.153Z,15.51
2024-04-09T09:32:31.264Z,15.47
2024-04-09T09:35:01.873Z,14.41
2024-04-09T09:37:32.352Z,15.52
2024-04-09T09:40:00.342Z,15.36
2024-04-09T09:42:28.578Z,15.64
2024-04-09T09:44:55.726Z,15.79
2024-04-09T09:47:23.749Z,15.72
2024-04-09T09:49:59.460Z,16.16
2024-04-09T09:52:29.666Z,16.28
2024-04-09T09:54:59.169Z,16.19
2024-04-09T09:57:30.120Z,16.67
2024-04-09T10:00:01.697Z,16.24
2024-04-09T10:02:32.211Z,16.96
2024-04-09T10:05:03.155Z,17.07
2024-04-09T10:07:30.536Z,17.28
2024-04-09T10:09:58.101Z,17.12
2024-04-09T10:12:36.222Z,17.61
2024-04-09T10:15:05.616Z,17.54
2024-04-09T10:17:53.829Z,17.73
2024-04-09T10:20:39.129Z,17.78
2024-04-09T10:23:10.760Z,17.50
2024-04-09T10:25:39.928Z,17.97
2024-04-09T10:28:11.847Z,18.13
2024-04-09T10:30:41.283Z,18.23
2024-04-09T10:33:08.790Z,18.28
2024-04-09T10:35:36.120Z,18.36
2024-04-09T10:38:07.240Z,18.48
2024-04-09T10:40:38.112Z,18.64
2024-04-09T10:43:09.284Z,18.70
2024-04-09T10:45:47.589Z,18.89
2024-04-09T10:48:23.951Z,18.71
2024-04-09T10:50:51.933Z,18.43
2024-04-09T10:53:19.128Z,18.14
2024-04-09T10:55:46.422Z,18.02
2024-04-09T10:58:17.125Z,18.05
2024-04-09T11:00:52.807Z,18.46
2024-04-09T11:03:23.722Z,18.40
2024-04-09T11:05:54.184Z,18.30
2024-04-09T11:08:40.052Z,18.64
2024-04-09T11:11:08.819Z,18.65
2024-04-09T11:13:36.164Z,18.69
2024-04-09T11:16:03.255Z,18.84
2024-04-09T11:18:30.773Z,18.82
2024-04-09T11:21:02.623Z,18.70
2024-04-09T11:23:33.339Z,18.52
2024-04-09T11:26:01.790Z,18.64
2024-04-09T11:28:28.823Z,18.74
2024-04-09T11:30:57.900Z,18.91
2024-04-09T11:33:28.971Z,18.69
2024-04-09T11:35:58.682Z,18.32
2024-04-09T11:38:25.518Z,18.72
2024-04-09T11:40:52.479Z,18.83
2024-04-09T11:43:21.884Z,18.74
2024-04-09T11:45:51.793Z,19.01
2024-04-09T11:48:20.887Z,19.09
2024-04-09T11:50:47.762Z,19.16
2024-04-09T11:53:20.001Z,19.07
2024-04-09T11:55:47.905Z,18.98
2024-04-09T11:58:14.700Z,18.85
2024-04-09T12:00:42.972Z,18.74
2024-04-09T12:03:10.200Z,18.59
2024-04-09T12:05:37.287Z,18.47
2024-04-09T12:08:04.433Z,18.44
2024-04-09T12:10:31.287Z,18.27
2024-04-09T12:12:58.211Z,18.32
2024-04-09T12:15:25.006Z,18.37
2024-04-09T12:17:51.866Z,18.51
2024-04-09T12:20:20.155Z,18.71
2024-04-09T12:22:47.758Z,18.84
2024-04-09T12:25:14.800Z,18.76
2024-04-09T12:27:42.139Z,18.81
2024-04-09T12:30:09.819Z,18.55
2024-04-09T12:32:37.373Z,18.68
2024-04-09T12:35:04.642Z,18.55
2024-04-09T12:37:31.697Z,18.93
2024-04-09T12:39:58.430Z,19.10
2024-04-09T12:42:27.938Z,19.24
2024-04-09T12:44:56.391Z,18.91
2024-04-09T12:47:23.407Z,19.69
2024-04-09T12:49:50.326Z,19.94
2024-04-09T12:52:17.260Z,20.08
2024-04-09T12:54:44.187Z,20.17
2024-04-09T12:57:11.173Z,20.15
2024-04-09T13:02:12.965Z,20.23
2024-04-09T13:04:40.346Z,20.18
2024-04-09T13:07:07.447Z,20.35
2024-04-09T13:09:34.284Z,20.53
2024-04-09T13:12:01.134Z,20.58
2024-04-09T13:14:27.963Z,20.64
2024-04-09T13:16:56.752Z,20.69
2024-04-09T13:19:25.814Z,20.75
2024-04-09T13:21:52.765Z,20.85
2024-04-09T13:24:19.494Z,20.92
2024-04-09T13:26:46.271Z,21.10
2024-04-09T13:29:13.141Z,21.20
2024-04-09T13:31:40.095Z,21.23
2024-04-09T13:34:07.449Z,21.43
2024-04-09T13:36:34.570Z,21.47
2024-04-09T13:39:01.328Z,21.58
2024-04-09T13:41:28.195Z,21.49
2024-04-09T13:43:55.498Z,21.61
2024-04-09T13:46:22.823Z,21.42
2024-04-09T13:48:53.361Z,21.05
2024-04-09T13:51:20.388Z,20.72
2024-04-09T13:53:47.304Z,20.31
2024-04-09T13:56:14.365Z,20.05
2024-04-09T13:58:41.593Z,19.78
2024-04-09T14:01:08.516Z,19.54
2024-04-09T14:03:36.135Z,19.41
2024-04-09T14:06:04.123Z,19.40
2024-04-09T14:08:31.692Z,19.22
2024-04-09T14:10:58.698Z,19.60
2024-04-09T14:13:29.790Z,19.70
2024-04-09T14:15:57.037Z,19.79
2024-04-09T14:18:28.153Z,19.97
2024-04-09T14:20:58.008Z,20.17
2024-04-09T14:23:25.650Z,20.34
2024-04-09T14:25:52.730Z,20.49
2024-04-09T14:28:20.124Z,20.59
2024-04-09T14:30:47.096Z,20.53
2024-04-09T14:33:14.461Z,20.50
2024-04-09T14:35:44.435Z,20.49
2024-04-09T14:38:11.324Z,20.12
2024-04-09T14:40:38.206Z,20.42
2024-04-09T14:43:05.219Z,20.38
2024-04-09T14:45:32.003Z,20.42
2024-04-09T14:47:58.929Z,20.39
2024-04-09T14:50:26.395Z,20.39
2024-04-09T14:52:53.344Z,20.27
2024-04-09T14:55:20.306Z,20.23
2024-04-09T14:57:47.096Z,20.29
2024-04-09T15:00:14.541Z,20.31
2024-04-09T15:02:41.690Z,20.14
2024-04-09T15:05:10.983Z,20.13
2024-04-09T15:07:38.653Z,20.16
2024-04-09T15:10:12.102Z,19.70
2024-04-09T15:12:43.539Z,20.13
2024-04-09T15:15:13.100Z,20.02
2024-04-09T15:17:40.162Z,19.86
2024-04-09T15:20:11.067Z,19.82
2024-04-09T15:22:39.932Z,19.93
2024-04-09T15:25:09.155Z,19.90
2024-04-09T15:27:36.187Z,19.83
2024-04-09T15:30:06.143Z,19.22
2024-04-09T15:32:34.486Z,19.75
2024-04-09T15:35:01.367Z,19.53
2024-04-09T15:37:29.127Z,19.25
2024-04-09T15:39:55.860Z,19.55
2024-04-09T15:42:22.646Z,19.44
2024-04-09T15:44:49.365Z,19.36
2024-04-09T15:47:16.362Z,19.27
2024-04-09T15:49:43.238Z,19.19
2024-04-09T15:52:09.989Z,19.20
2024-04-09T15:54:36.780Z,18.91
2024-04-09T15:57:03.743Z,18.93
2024-04-09T15:59:30.564Z,18.68
2024-04-09T16:01:58.606Z,18.50
2024-04-09T16:04:25.886Z,18.47
2024-04-09T16:06:52.748Z,18.44
2024-04-09T16:09:21.556Z,18.38
2024-04-09T16:11:48.802Z,18.30
2024-04-09T16:14:15.714Z,18.22
2024-04-09T16:16:45.604Z,18.25
2024-04-09T16:19:12.599Z,18.15
2024-04-09T16:21:39.405Z,17.91
2024-04-09T16:24:06.396Z,17.98
2024-04-09T16:26:33.423Z,17.85
2024-04-09T16:29:02.915Z,18.26
2024-04-09T16:31:29.753Z,18.18
2024-04-09T16:33:56.652Z,18.11
2024-04-09T16:36:23.542Z,18.04
2024-04-09T16:38:50.315Z,17.95
2024-04-09T16:41:17.226Z,17.56
2024-04-09T16:43:44.117Z,17.73
2024-04-09T16:46:11.284Z,17.66
2024-04-09T16:48:38.305Z,17.61
2024-04-09T16:51:06.093Z,17.51
2024-04-09T16:53:33.095Z,17.40
2024-04-09T16:56:01.491Z,17.03
2024-04-09T16:58:29.694Z,17.11
2024-04-09T17:00:57.083Z,16.82
2024-04-09T17:03:24.833Z,17.00
2024-04-09T17:05:51.719Z,16.91
2024-04-09T17:08:18.668Z,16.92
2024-04-09T17:10:59.124Z,16.95
2024-04-09T17:13:26.874Z,16.73
2024-04-09T17:15:54.028Z,16.60
2024-04-09T17:18:21.189Z,16.79
2024-04-09T17:20:48.844Z,16.46
2024-04-09T17:23:20.495Z,16.56
2024-04-09T17:25:48.129Z,16.46
2024-04-09T17:28:14.945Z,16.60
2024-04-09T17:30:41.883Z,16.52
2024-04-09T17:33:08.876Z,16.45
2024-04-09T17:35:35.906Z,16.10
2024-04-09T17:38:02.920Z,16.41
2024-04-09T17:40:29.816Z,16.42
2024-04-09T17:43:01.966Z,16.39
2024-04-09T17:45:28.791Z,16.21
2024-04-09T17:47:56.951Z,16.21
2024-04-09T17:50:24.171Z,16.04
2024-04-09T17:52:52.416Z,16.01
2024-04-09T17:55:23.322Z,15.94
2024-04-09T17:57:50.470Z,15.60
2024-04-09T18:00:17.359Z,15.91
2024-04-09T18:02:44.272Z,15.86
2024-04-09T18:05:11.207Z,15.78
2024-04-09T18:07:38.316Z,15.68
2024-04-09T18:10:06.952Z,15.61
2024-04-09T18:12:33.751Z,15.32
2024-04-09T18:15:00.702Z,15.54
2024-04-09T18:17:29.721Z,15.37
2024-04-09T18:19:57.202Z,15.39
2024-04-09T18:22:24.241Z,15.37
2024-04-09T18:24:51.476Z,15.34
2024-04-09T18:27:21.143Z,15.27
2024-04-09T18:29:48.028Z,15.14
2024-04-09T18:32:17.905Z,15.17
2024-04-09T18:34:44.838Z,15.02
2024-04-09T18:37:11.802Z,15.09
2024-04-09T18:39:38.538Z,15.08
2024-04-09T18:42:05.520Z,14.93
2024-04-09T18:44:32.494Z,14.96
2024-04-09T18:46:59.449Z,14.95
2024-04-09T18:49:26.387Z,14.73
2024-04-09T18:51:54.719Z,14.94
2024-04-09T18:54:21.901Z,14.92
2024-04-09T18:56:48.656Z,14.76
2024-04-09T18:59:15.706Z,14.38
2024-04-09T19:01:43.870Z,14.36
2024-04-09T19:04:10.851Z,14.32
2024-04-09T19:06:37.684Z,14.58
2024-04-09T19:09:05.899Z,14.60
2024-04-09T19:11:32.851Z,14.56
2024-04-09T19:14:00.702Z,14.42
2024-04-09T19:16:27.522Z,14.42
2024-04-09T19:18:54.261Z,14.40
2024-04-09T19:21:21.003Z,14.30
2024-04-09T19:23:47.761Z,14.33
2024-04-09T19:26:16.078Z,14.32
2024-04-09T19:28:42.955Z,14.30
2024-04-09T19:31:09.935Z,14.27
2024-04-09T19:33:36.919Z,14.30
2024-04-09T19:36:04.830Z,14.32
2024-04-09T19:38:33.210Z,14.36
2024-04-09T19:41:00.118Z,14.33
2024-04-09T19:43:37.570Z,14.31
2024-04-09T19:46:09.515Z,14.29
2024-04-09T19:48:36.981Z,14.30
2024-04-09T19:51:04.362Z,14.30
2024-04-09T19:53:44.857Z,14.32
2024-04-09T19:56:18.392Z,14.08
2024-04-09T19:58:46.226Z,14.21
2024-04-09T20:01:13.973Z,14.14
2024-04-09T20:03:43.066Z,14.11
2024-04-09T20:06:11.324Z,14.00
2024-04-09T20:08:39.425Z,13.89
2024-04-09T20:11:07.969Z,13.95
2024-04-09T20:13:34.908Z,13.74
2024-04-09T20:16:01.687Z,13.77
2024-04-09T20:18:30.120Z,13.76
2024-04-09T20:20:58.962Z,13.73
2024-04-09T20:23:26.178Z,13.65
2024-04-09T20:25:56.578Z,13.63
2024-04-09T20:28:25.400Z,13.56
2024-04-09T20:30:52.858Z,13.60
2024-04-09T20:33:20.280Z,13.58
2024-04-09T20:35:47.552Z,13.55
2024-04-09T20:38:14.744Z,13.47
2024-04-09T20:40:42.969Z,13.52
2024-04-09T20:43:09.692Z,13.49
2024-04-09T20:45:36.455Z,13.43
2024-04-09T20:48:04.678Z,13.38
2024-04-09T20:50:31.693Z,13.30
2024-04-09T20:52:59.677Z,13.21
2024-04-09T20:55:26.436Z,13.13
2024-04-09T20:57:54.182Z,13.10
2024-04-09T21:00:20.961Z,13.07
2024-04-09T21:02:47.744Z,13.04
2024-04-09T21:05:14.740Z,12.97
2024-04-09T21:07:41.581Z,12.86
2024-04-09T21:10:09.770Z,12.79
2024-04-09T21:12:37.142Z,12.77
2024-04-09T21:15:05.202Z,12.76
2024-04-09T21:17:32.605Z,12.74
2024-04-09T21:19:59.656Z,12.78
2024-04-09T21:22:26.440Z,12.81
2024-04-09T21:24:53.255Z,12.88
2024-04-09T21:50:30.491Z,13.04
2024-04-09T21:52:58.072Z,12.73
2024-04-09T21:55:24.839Z,12.45
2024-04-09T21:57:51.602Z,12.35
2024-04-09T22:00:21.947Z,12.27
2024-04-09T22:02:49.414Z,12.12
2024-04-09T22:05:16.634Z,12.12
2024-04-09T22:07:43.901Z,12.12
2024-04-09T22:10:14.603Z,11.82
2024-04-09T22:12:46.038Z,12.22
2024-04-09T22:15:13.130Z,12.26
2024-04-09T22:17:43.276Z,12.34
2024-04-09T22:20:10.421Z,12.30
2024-04-09T22:22:37.195Z,12.32
2024-04-09T22:25:04.075Z,12.17
2024-04-09T22:27:30.945Z,12.32
2024-04-09T22:29:57.711Z,12.29
2024-04-09T22:32:24.643Z,12.34
2024-04-09T22:34:51.542Z,12.34
2024-04-09T22:37:18.321Z,12.30
2024-04-09T22:39:45.181Z,12.29
2024-04-09T22:42:11.944Z,12.26
2024-04-09T22:44:38.864Z,12.24
2024-04-09T22:47:06.110Z,12.19
2024-04-09T22:49:33.007Z,12.13
2024-04-09T22:51:59.758Z,12.11
2024-04-09T22:54:27.720Z,12.05
2024-04-09T22:56:54.508Z,12.09
2024-04-09T22:59:21.365Z,12.07
2024-04-09T23:01:48.179Z,12.03
2024-04-09T23:04:14.999Z,11.92
2024-04-09T23:06:41.787Z,11.97
2024-04-09T23:09:12.267Z,11.87
2024-04-09T23:11:39.176Z,11.92
2024-04-09T23:14:05.975Z,11.69
2024-04-09T23:16:33.069Z,11.73
2024-04-09T23:19:00.007Z,11.64
2024-04-09T23:21:26.904Z,11.63
2024-04-09T23:23:53.676Z,11.58
2024-04-09T23:26:20.910Z,11.58
2024-04-09T23:28:47.757Z,11.58
2024-04-09T23:31:14.606Z,11.57
2024-04-09T23:33:41.443Z,11.62
2024-04-09T23:36:08.596Z,11.63
2024-04-09T23:38:35.483Z,11.68
2024-04-09T23:41:02.898Z,11.72
2024-04-09T23:43:29.970Z,11.68
2024-04-09T23:46:04.224Z,11.67
2024-04-09T23:48:32.230Z,11.24
2024-04-09T23:51:03.517Z,11.53
2024-04-09T23:53:30.869Z,11.34
2024-04-09T23:55:59.556Z,11.29
2024-04-09T23:58:26.732Z,11.23
